Airfield :
LOGIN :

Register | Disclaimer

   EN    FR    IT 

 










Legend :    VFR   Marginal VFR   IFR   Intensive IFR   Very Intensive IFR
Visi :
Ceiling :
>= 8 km
>= 3000ft
5 to 8 km
1000 to 3000 ft
1500m to 5 km
500 to 1000 ft
800 to 1500m
200 to 500 ft
< 800m
< 200 ft
Symbols :   Thunderstorms  Fog  Heavy snow  Heavy precipitations  Wind > 20 kt
SIGMETs :     Misc.  Thunderstorms  Icing  Turbulence  Mountain Waves  Volcanic Ashes







- Airport Elevation : 200 ft


EBBL - Klein Brogel AB

CURRENT METAR :
  • 252125Z AUTO VRB01KT 9999 NCD 15/11 Q1023 BLU

EXPIRED METARs :
  • 252055Z AUTO VRB01KT 9999 NCD 17/11 Q1023 BLU
  • 252025Z AUTO VRB01KT 9999 NCD 17/11 Q1023 BLU
  • 251955Z AUTO 07003KT 9999 NCD 19/11 Q1022 BLU
  • 251925Z 07005KT 9999 FEW040 20/11 Q1022 BLU
  • 251855Z 07006KT 9999 FEW040 21/11 Q1022 BLU

TAF TAF EBBL
Valid from the 25 at 19:00 until the 26 at 07:00 UTC


251541Z 2519/2607 07008KT 9999 SKC BY EBWM
No reported NOTAMs for that airfield.



MET'MAP, your aeronautical weather chart ! - Copyright ORBIFLY December 2007 - Disclaimer

ORBIFLY MET'MAP TEAM :

Programming & Development : Alexandra Zaïnal
Concept & Development : Baudouin d'Aumeries
Co-Development & Prog : Marc-Olivier Méhu
Technical & hardware support : Manuel Goepfert

Contact : metmap@orbifly.com




SOURCES & CREDITS :

   NOAA